Rhawnhurst, Pennsylvania
Current Conditions -  °F | °C
As of 7:54 AM on Thursday 27 Nov 2014 (Local Time) from KPNE Reporting Station
Overcast Overcast  
Wind Chill: 36°   Ceiling: 2700
Heat Index: 36°   Visibility: 10mi
Dew Point: 30°   Wind: 3mph
Humidity: 79%   Direction: 290°WNW
Pressure: 30.02"   Gusts: NA
Location:  40.063°N, 75.0797°W
Report Text: KPNE 271254Z AUTO 29003KT 10SM BKN027 OVC035 02/M01 A3002 RMK AO2 SLP166 T00221011 TSNO
Loading
Personal Weather Stations






























Interactive Weather Map New forecast layout! Learn more

10-Day Weather Forecast

Advertisements
Track Severe Weather on mobile